sensor_id;sensor_type;location;lat;lon;timestamp;P1;durP1;ratioP1;P2;durP2;ratioP2
2934;SDS011;2462;51.456;7.248;2023-01-24T00:02:24;9.90;;;7.97;;
2934;SDS011;2462;51.456;7.248;2023-01-24T00:04:50;9.07;;;8.10;;
2934;SDS011;2462;51.456;7.248;2023-01-24T00:07:16;9.07;;;7.40;;
2934;SDS011;2462;51.456;7.248;2023-01-24T00:09:42;9.23;;;7.73;;
2934;SDS011;2462;51.456;7.248;2023-01-24T00:12:08;8.70;;;7.80;;
2934;SDS011;2462;51.456;7.248;2023-01-24T00:14:34;8.80;;;7.40;;
2934;SDS011;2462;51.456;7.248;2023-01-24T00:17:00;10.20;;;8.10;;
2934;SDS011;2462;51.456;7.248;2023-01-24T00:19:26;9.50;;;7.97;;
2934;SDS011;2462;51.456;7.248;2023-01-24T00:21:52;9.20;;;7.83;;
2934;SDS011;2462;51.456;7.248;2023-01-24T00:24:18;8.70;;;7.80;;
2934;SDS011;2462;51.456;7.248;2023-01-24T00:26:44;8.70;;;7.30;;
2934;SDS011;2462;51.456;7.248;2023-01-24T00:31:36;9.50;;;8.50;;
2934;SDS011;2462;51.456;7.248;2023-01-24T00:34:02;9.70;;;8.17;;
2934;SDS011;2462;51.456;7.248;2023-01-24T00:36:28;7.57;;;6.87;;
2934;SDS011;2462;51.456;7.248;2023-01-24T00:38:54;10.50;;;7.20;;
2934;SDS011;2462;51.456;7.248;2023-01-24T00:41:20;10.63;;;8.70;;
2934;SDS011;2462;51.456;7.248;2023-01-24T00:43:46;8.50;;;7.50;;
2934;SDS011;2462;51.456;7.248;2023-01-24T00:46:12;8.90;;;7.43;;
2934;SDS011;2462;51.456;7.248;2023-01-24T00:48:38;9.70;;;7.50;;
2934;SDS011;2462;51.456;7.248;2023-01-24T00:51:04;8.00;;;7.03;;
2934;SDS011;2462;51.456;7.248;2023-01-24T00:53:30;8.13;;;7.30;;
2934;SDS011;2462;51.456;7.248;2023-01-24T00:55:56;9.83;;;7.87;;
2934;SDS011;2462;51.456;7.248;2023-01-24T00:58:22;8.23;;;7.33;;
2934;SDS011;2462;51.456;7.248;2023-01-24T01:00:48;8.80;;;7.10;;
2934;SDS011;2462;51.456;7.248;2023-01-24T01:03:18;9.50;;;7.50;;
2934;SDS011;2462;51.456;7.248;2023-01-24T01:05:44;8.30;;;7.47;;
2934;SDS011;2462;51.456;7.248;2023-01-24T01:08:11;9.67;;;7.77;;
2934;SDS011;2462;51.456;7.248;2023-01-24T01:10:37;8.90;;;7.13;;
2934;SDS011;2462;51.456;7.248;2023-01-24T01:13:03;8.77;;;7.70;;
2934;SDS011;2462;51.456;7.248;2023-01-24T01:15:30;7.30;;;6.50;;
2934;SDS011;2462;51.456;7.248;2023-01-24T01:17:56;9.30;;;6.90;;
2934;SDS011;2462;51.456;7.248;2023-01-24T01:20:22;7.57;;;6.83;;
2934;SDS011;2462;51.456;7.248;2023-01-24T01:22:48;8.30;;;7.00;;
2934;SDS011;2462;51.456;7.248;2023-01-24T01:25:14;7.43;;;6.23;;
2934;SDS011;2462;51.456;7.248;2023-01-24T01:27:40;7.40;;;6.63;;
2934;SDS011;2462;51.456;7.248;2023-01-24T01:30:07;7.67;;;6.40;;
2934;SDS011;2462;51.456;7.248;2023-01-24T01:32:33;8.80;;;7.23;;
2934;SDS011;2462;51.456;7.248;2023-01-24T01:34:59;7.67;;;6.70;;
2934;SDS011;2462;51.456;7.248;2023-01-24T01:37:25;8.80;;;7.57;;
2934;SDS011;2462;51.456;7.248;2023-01-24T01:39:51;7.17;;;6.03;;
2934;SDS011;2462;51.456;7.248;2023-01-24T01:42:17;9.00;;;6.70;;
2934;SDS011;2462;51.456;7.248;2023-01-24T01:44:43;6.90;;;6.20;;
2934;SDS011;2462;51.456;7.248;2023-01-24T01:49:43;7.73;;;6.47;;
2934;SDS011;2462;51.456;7.248;2023-01-24T01:52:11;6.80;;;5.90;;
2934;SDS011;2462;51.456;7.248;2023-01-24T01:54:38;6.40;;;5.80;;
2934;SDS011;2462;51.456;7.248;2023-01-24T01:57:07;8.20;;;6.90;;
2934;SDS011;2462;51.456;7.248;2023-01-24T01:59:35;8.40;;;7.03;;
2934;SDS011;2462;51.456;7.248;2023-01-24T02:02:04;9.93;;;7.50;;
2934;SDS011;2462;51.456;7.248;2023-01-24T02:04:33;7.90;;;6.10;;
2934;SDS011;2462;51.456;7.248;2023-01-24T02:09:32;7.67;;;6.23;;
2934;SDS011;2462;51.456;7.248;2023-01-24T02:12:00;7.90;;;6.40;;
2934;SDS011;2462;51.456;7.248;2023-01-24T02:14:27;6.97;;;5.90;;
2934;SDS011;2462;51.456;7.248;2023-01-24T02:17:12;7.87;;;6.47;;
2934;SDS011;2462;51.456;7.248;2023-01-24T02:19:45;8.80;;;5.97;;
2934;SDS011;2462;51.456;7.248;2023-01-24T02:22:17;7.37;;;6.23;;
2934;SDS011;2462;51.456;7.248;2023-01-24T02:24:47;8.00;;;6.73;;
2934;SDS011;2462;51.456;7.248;2023-01-24T02:27:15;7.60;;;6.83;;
2934;SDS011;2462;51.456;7.248;2023-01-24T02:29:41;7.07;;;5.90;;
2934;SDS011;2462;51.456;7.248;2023-01-24T02:32:07;7.70;;;6.67;;
2934;SDS011;2462;51.456;7.248;2023-01-24T02:34:33;7.23;;;6.30;;
2934;SDS011;2462;51.456;7.248;2023-01-24T02:37:00;6.80;;;6.20;;
2934;SDS011;2462;51.456;7.248;2023-01-24T02:39:31;7.53;;;6.83;;
2934;SDS011;2462;51.456;7.248;2023-01-24T02:42:03;6.50;;;5.90;;
2934;SDS011;2462;51.456;7.248;2023-01-24T02:44:33;7.00;;;6.00;;
2934;SDS011;2462;51.456;7.248;2023-01-24T02:47:01;6.40;;;5.50;;
2934;SDS011;2462;51.456;7.248;2023-01-24T02:49:27;7.40;;;5.93;;
2934;SDS011;2462;51.456;7.248;2023-01-24T02:51:53;7.50;;;5.50;;
2934;SDS011;2462;51.456;7.248;2023-01-24T02:54:38;6.73;;;6.00;;
2934;SDS011;2462;51.456;7.248;2023-01-24T02:57:04;9.00;;;6.40;;
2934;SDS011;2462;51.456;7.248;2023-01-24T02:59:49;6.73;;;6.03;;
2934;SDS011;2462;51.456;7.248;2023-01-24T03:02:15;7.23;;;6.07;;
2934;SDS011;2462;51.456;7.248;2023-01-24T03:04:41;6.67;;;6.00;;
2934;SDS011;2462;51.456;7.248;2023-01-24T03:07:07;7.00;;;6.10;;
2934;SDS011;2462;51.456;7.248;2023-01-24T03:09:33;5.80;;;5.30;;
2934;SDS011;2462;51.456;7.248;2023-01-24T03:12:00;6.87;;;6.20;;
2934;SDS011;2462;51.456;7.248;2023-01-24T03:14:45;6.53;;;5.87;;
2934;SDS011;2462;51.456;7.248;2023-01-24T03:17:30;6.60;;;5.90;;
2934;SDS011;2462;51.456;7.248;2023-01-24T03:20:15;5.50;;;5.00;;
2934;SDS011;2462;51.456;7.248;2023-01-24T03:23:00;6.20;;;5.50;;
2934;SDS011;2462;51.456;7.248;2023-01-24T03:25:44;7.30;;;6.10;;
2934;SDS011;2462;51.456;7.248;2023-01-24T03:28:29;6.37;;;5.63;;
2934;SDS011;2462;51.456;7.248;2023-01-24T03:31:13;7.00;;;5.77;;
2934;SDS011;2462;51.456;7.248;2023-01-24T03:33:58;7.07;;;5.83;;
2934;SDS011;2462;51.456;7.248;2023-01-24T03:36:42;6.67;;;5.90;;
2934;SDS011;2462;51.456;7.248;2023-01-24T03:39:11;7.60;;;5.17;;
2934;SDS011;2462;51.456;7.248;2023-01-24T03:41:56;6.70;;;6.00;;
2934;SDS011;2462;51.456;7.248;2023-01-24T03:44:22;6.40;;;5.80;;
2934;SDS011;2462;51.456;7.248;2023-01-24T03:46:50;6.93;;;6.00;;
2934;SDS011;2462;51.456;7.248;2023-01-24T03:49:18;6.80;;;5.43;;
2934;SDS011;2462;51.456;7.248;2023-01-24T03:51:44;6.50;;;5.60;;
2934;SDS011;2462;51.456;7.248;2023-01-24T03:54:29;6.40;;;5.50;;
2934;SDS011;2462;51.456;7.248;2023-01-24T03:56:55;5.60;;;4.87;;
2934;SDS011;2462;51.456;7.248;2023-01-24T03:59:21;7.20;;;6.17;;
2934;SDS011;2462;51.456;7.248;2023-01-24T04:01:47;6.30;;;5.70;;
2934;SDS011;2462;51.456;7.248;2023-01-24T04:04:13;5.83;;;5.23;;
2934;SDS011;2462;51.456;7.248;2023-01-24T04:06:38;6.40;;;5.67;;
2934;SDS011;2462;51.456;7.248;2023-01-24T04:09:04;7.60;;;6.40;;
2934;SDS011;2462;51.456;7.248;2023-01-24T04:11:31;6.93;;;5.70;;
2934;SDS011;2462;51.456;7.248;2023-01-24T04:13:57;6.07;;;5.40;;
2934;SDS011;2462;51.456;7.248;2023-01-24T04:16:23;6.47;;;5.83;;
2934;SDS011;2462;51.456;7.248;2023-01-24T04:18:49;5.93;;;5.30;;
2934;SDS011;2462;51.456;7.248;2023-01-24T04:21:15;6.20;;;5.57;;
2934;SDS011;2462;51.456;7.248;2023-01-24T04:23:41;6.53;;;5.83;;
2934;SDS011;2462;51.456;7.248;2023-01-24T04:26:07;7.10;;;5.67;;
2934;SDS011;2462;51.456;7.248;2023-01-24T04:28:33;6.00;;;5.40;;
2934;SDS011;2462;51.456;7.248;2023-01-24T04:30:59;5.80;;;5.13;;
2934;SDS011;2462;51.456;7.248;2023-01-24T04:33:26;8.33;;;5.73;;
2934;SDS011;2462;51.456;7.248;2023-01-24T04:35:55;5.40;;;4.90;;
2934;SDS011;2462;51.456;7.248;2023-01-24T04:38:21;5.73;;;4.93;;
2934;SDS011;2462;51.456;7.248;2023-01-24T04:40:55;6.80;;;5.83;;
2934;SDS011;2462;51.456;7.248;2023-01-24T04:43:21;6.17;;;4.93;;
2934;SDS011;2462;51.456;7.248;2023-01-24T04:45:47;6.07;;;5.20;;
2934;SDS011;2462;51.456;7.248;2023-01-24T04:48:13;6.60;;;5.40;;
2934;SDS011;2462;51.456;7.248;2023-01-24T04:50:39;5.73;;;5.23;;
2934;SDS011;2462;51.456;7.248;2023-01-24T04:53:05;6.20;;;5.60;;
2934;SDS011;2462;51.456;7.248;2023-01-24T04:55:31;6.23;;;5.67;;
2934;SDS011;2462;51.456;7.248;2023-01-24T04:57:57;6.43;;;5.73;;
2934;SDS011;2462;51.456;7.248;2023-01-24T05:00:23;6.07;;;5.47;;
2934;SDS011;2462;51.456;7.248;2023-01-24T05:02:50;5.43;;;4.90;;
2934;SDS011;2462;51.456;7.248;2023-01-24T05:05:16;6.70;;;5.70;;
2934;SDS011;2462;51.456;7.248;2023-01-24T05:07:42;6.97;;;5.60;;
2934;SDS011;2462;51.456;7.248;2023-01-24T05:10:08;6.53;;;5.73;;
2934;SDS011;2462;51.456;7.248;2023-01-24T05:12:34;6.10;;;5.50;;
2934;SDS011;2462;51.456;7.248;2023-01-24T05:15:00;6.80;;;5.40;;
2934;SDS011;2462;51.456;7.248;2023-01-24T05:17:26;6.67;;;5.43;;
2934;SDS011;2462;51.456;7.248;2023-01-24T05:19:52;8.00;;;7.03;;
2934;SDS011;2462;51.456;7.248;2023-01-24T05:22:18;6.73;;;5.90;;
2934;SDS011;2462;51.456;7.248;2023-01-24T05:24:44;7.20;;;6.40;;
2934;SDS011;2462;51.456;7.248;2023-01-24T05:27:10;8.17;;;6.60;;
2934;SDS011;2462;51.456;7.248;2023-01-24T05:29:36;6.63;;;5.50;;
2934;SDS011;2462;51.456;7.248;2023-01-24T05:32:02;6.17;;;5.40;;
2934;SDS011;2462;51.456;7.248;2023-01-24T05:34:29;6.30;;;5.70;;
2934;SDS011;2462;51.456;7.248;2023-01-24T05:36:55;6.70;;;6.00;;
2934;SDS011;2462;51.456;7.248;2023-01-24T05:39:21;7.40;;;5.90;;
2934;SDS011;2462;51.456;7.248;2023-01-24T05:41:47;7.10;;;6.40;;
2934;SDS011;2462;51.456;7.248;2023-01-24T05:44:13;6.30;;;5.70;;
2934;SDS011;2462;51.456;7.248;2023-01-24T05:46:39;7.10;;;6.40;;
2934;SDS011;2462;51.456;7.248;2023-01-24T05:49:07;6.77;;;5.67;;
2934;SDS011;2462;51.456;7.248;2023-01-24T05:51:33;7.10;;;6.30;;
2934;SDS011;2462;51.456;7.248;2023-01-24T05:53:59;7.20;;;5.93;;
2934;SDS011;2462;51.456;7.248;2023-01-24T05:56:25;8.20;;;7.07;;
2934;SDS011;2462;51.456;7.248;2023-01-24T05:58:52;8.33;;;6.73;;
2934;SDS011;2462;51.456;7.248;2023-01-24T06:01:21;6.70;;;5.60;;
2934;SDS011;2462;51.456;7.248;2023-01-24T06:03:48;6.73;;;6.07;;
2934;SDS011;2462;51.456;7.248;2023-01-24T06:06:16;7.90;;;6.70;;
2934;SDS011;2462;51.456;7.248;2023-01-24T06:08:42;7.43;;;6.30;;
2934;SDS011;2462;51.456;7.248;2023-01-24T06:11:13;6.90;;;6.10;;
2934;SDS011;2462;51.456;7.248;2023-01-24T06:13:39;6.90;;;6.00;;
2934;SDS011;2462;51.456;7.248;2023-01-24T06:16:06;7.77;;;6.37;;
2934;SDS011;2462;51.456;7.248;2023-01-24T06:18:32;7.70;;;6.53;;
2934;SDS011;2462;51.456;7.248;2023-01-24T06:21:03;7.83;;;6.63;;
2934;SDS011;2462;51.456;7.248;2023-01-24T06:23:29;7.87;;;7.07;;
2934;SDS011;2462;51.456;7.248;2023-01-24T06:25:56;7.57;;;6.20;;
2934;SDS011;2462;51.456;7.248;2023-01-24T06:28:22;7.63;;;6.40;;
2934;SDS011;2462;51.456;7.248;2023-01-24T06:31:15;6.93;;;6.23;;
2934;SDS011;2462;51.456;7.248;2023-01-24T06:33:43;7.80;;;7.00;;
2934;SDS011;2462;51.456;7.248;2023-01-24T06:36:32;8.10;;;6.27;;
2934;SDS011;2462;51.456;7.248;2023-01-24T06:39:00;6.37;;;5.77;;
2934;SDS011;2462;51.456;7.248;2023-01-24T06:41:26;7.33;;;6.63;;
2934;SDS011;2462;51.456;7.248;2023-01-24T06:43:52;7.73;;;5.90;;
2934;SDS011;2462;51.456;7.248;2023-01-24T06:46:18;7.37;;;5.93;;
2934;SDS011;2462;51.456;7.248;2023-01-24T06:48:44;7.73;;;6.23;;
2934;SDS011;2462;51.456;7.248;2023-01-24T06:51:11;6.90;;;6.20;;
2934;SDS011;2462;51.456;7.248;2023-01-24T06:53:39;8.10;;;6.80;;
2934;SDS011;2462;51.456;7.248;2023-01-24T06:56:05;7.97;;;6.87;;
2934;SDS011;2462;51.456;7.248;2023-01-24T06:58:32;7.57;;;6.17;;
2934;SDS011;2462;51.456;7.248;2023-01-24T07:00:58;7.60;;;6.67;;
2934;SDS011;2462;51.456;7.248;2023-01-24T07:03:24;7.63;;;6.40;;
2934;SDS011;2462;51.456;7.248;2023-01-24T07:05:50;7.20;;;6.20;;
2934;SDS011;2462;51.456;7.248;2023-01-24T07:08:16;7.30;;;6.30;;
2934;SDS011;2462;51.456;7.248;2023-01-24T07:10:44;6.57;;;5.87;;
2934;SDS011;2462;51.456;7.248;2023-01-24T07:13:10;7.90;;;6.40;;
2934;SDS011;2462;51.456;7.248;2023-01-24T07:15:36;6.80;;;6.20;;
2934;SDS011;2462;51.456;7.248;2023-01-24T07:18:09;7.17;;;6.27;;
2934;SDS011;2462;51.456;7.248;2023-01-24T07:20:36;8.10;;;7.30;;
2934;SDS011;2462;51.456;7.248;2023-01-24T07:23:02;7.70;;;6.47;;
2934;SDS011;2462;51.456;7.248;2023-01-24T07:25:29;7.60;;;6.70;;
2934;SDS011;2462;51.456;7.248;2023-01-24T07:27:55;8.87;;;6.70;;
2934;SDS011;2462;51.456;7.248;2023-01-24T07:30:21;7.57;;;6.77;;
2934;SDS011;2462;51.456;7.248;2023-01-24T07:32:47;7.13;;;6.43;;
2934;SDS011;2462;51.456;7.248;2023-01-24T07:35:13;6.90;;;6.10;;
2934;SDS011;2462;51.456;7.248;2023-01-24T07:37:39;7.90;;;7.10;;
2934;SDS011;2462;51.456;7.248;2023-01-24T07:40:05;7.70;;;6.90;;
2934;SDS011;2462;51.456;7.248;2023-01-24T07:42:32;6.77;;;6.07;;
2934;SDS011;2462;51.456;7.248;2023-01-24T07:44:58;7.13;;;6.43;;
2934;SDS011;2462;51.456;7.248;2023-01-24T07:47:24;7.00;;;5.80;;
2934;SDS011;2462;51.456;7.248;2023-01-24T07:49:51;7.10;;;6.10;;
2934;SDS011;2462;51.456;7.248;2023-01-24T07:52:17;7.40;;;6.70;;
2934;SDS011;2462;51.456;7.248;2023-01-24T07:54:43;7.10;;;5.70;;
2934;SDS011;2462;51.456;7.248;2023-01-24T07:57:09;7.47;;;6.77;;
2934;SDS011;2462;51.456;7.248;2023-01-24T07:59:35;6.27;;;5.63;;
2934;SDS011;2462;51.456;7.248;2023-01-24T08:02:01;7.00;;;6.10;;
2934;SDS011;2462;51.456;7.248;2023-01-24T08:04:27;6.83;;;6.13;;
2934;SDS011;2462;51.456;7.248;2023-01-24T08:06:53;8.47;;;6.97;;
2934;SDS011;2462;51.456;7.248;2023-01-24T08:09:38;6.60;;;5.90;;
2934;SDS011;2462;51.456;7.248;2023-01-24T08:12:04;7.77;;;6.40;;
2934;SDS011;2462;51.456;7.248;2023-01-24T08:14:30;7.67;;;6.47;;
2934;SDS011;2462;51.456;7.248;2023-01-24T08:16:56;7.03;;;6.33;;
2934;SDS011;2462;51.456;7.248;2023-01-24T08:19:22;8.10;;;6.30;;
2934;SDS011;2462;51.456;7.248;2023-01-24T08:21:48;7.30;;;6.50;;
2934;SDS011;2462;51.456;7.248;2023-01-24T08:24:14;6.70;;;5.60;;
2934;SDS011;2462;51.456;7.248;2023-01-24T08:26:40;6.77;;;6.07;;
2934;SDS011;2462;51.456;7.248;2023-01-24T08:29:06;6.53;;;5.80;;
2934;SDS011;2462;51.456;7.248;2023-01-24T08:31:32;6.30;;;5.37;;
2934;SDS011;2462;51.456;7.248;2023-01-24T08:33:58;6.50;;;5.83;;
2934;SDS011;2462;51.456;7.248;2023-01-24T08:36:24;6.33;;;5.73;;
2934;SDS011;2462;51.456;7.248;2023-01-24T08:38:50;6.93;;;6.00;;
2934;SDS011;2462;51.456;7.248;2023-01-24T08:41:16;6.13;;;5.53;;
2934;SDS011;2462;51.456;7.248;2023-01-24T08:43:42;6.20;;;5.60;;
2934;SDS011;2462;51.456;7.248;2023-01-24T08:46:08;6.43;;;5.83;;
2934;SDS011;2462;51.456;7.248;2023-01-24T08:48:34;6.80;;;6.10;;
2934;SDS011;2462;51.456;7.248;2023-01-24T08:51:03;5.87;;;5.33;;
2934;SDS011;2462;51.456;7.248;2023-01-24T08:53:30;5.93;;;5.33;;
2934;SDS011;2462;51.456;7.248;2023-01-24T08:55:56;6.47;;;5.80;;
2934;SDS011;2462;51.456;7.248;2023-01-24T08:58:22;6.83;;;6.23;;
2934;SDS011;2462;51.456;7.248;2023-01-24T09:00:48;8.00;;;7.10;;
2934;SDS011;2462;51.456;7.248;2023-01-24T09:03:17;6.70;;;6.10;;
2934;SDS011;2462;51.456;7.248;2023-01-24T09:05:43;6.60;;;5.93;;
2934;SDS011;2462;51.456;7.248;2023-01-24T09:08:10;8.40;;;6.00;;
2934;SDS011;2462;51.456;7.248;2023-01-24T09:10:36;6.00;;;5.40;;
2934;SDS011;2462;51.456;7.248;2023-01-24T09:13:03;5.50;;;5.00;;
2934;SDS011;2462;51.456;7.248;2023-01-24T09:15:29;6.50;;;5.30;;
2934;SDS011;2462;51.456;7.248;2023-01-24T09:17:55;6.00;;;5.00;;
2934;SDS011;2462;51.456;7.248;2023-01-24T09:20:21;5.63;;;5.13;;
2934;SDS011;2462;51.456;7.248;2023-01-24T09:22:47;7.60;;;6.13;;
2934;SDS011;2462;51.456;7.248;2023-01-24T09:25:13;7.30;;;5.37;;
2934;SDS011;2462;51.456;7.248;2023-01-24T09:27:39;6.80;;;5.33;;
2934;SDS011;2462;51.456;7.248;2023-01-24T09:30:07;5.90;;;5.40;;
2934;SDS011;2462;51.456;7.248;2023-01-24T09:32:34;6.17;;;5.67;;
2934;SDS011;2462;51.456;7.248;2023-01-24T09:35:00;5.63;;;5.13;;
2934;SDS011;2462;51.456;7.248;2023-01-24T09:37:26;7.00;;;5.33;;
2934;SDS011;2462;51.456;7.248;2023-01-24T09:39:52;6.27;;;5.67;;
2934;SDS011;2462;51.456;7.248;2023-01-24T09:48:02;6.30;;;5.70;;
2934;SDS011;2462;51.456;7.248;2023-01-24T09:50:34;7.10;;;6.00;;
2934;SDS011;2462;51.456;7.248;2023-01-24T09:53:02;6.03;;;5.43;;
2934;SDS011;2462;51.456;7.248;2023-01-24T09:55:29;6.17;;;5.60;;
2934;SDS011;2462;51.456;7.248;2023-01-24T09:57:58;6.77;;;5.90;;
2934;SDS011;2462;51.456;7.248;2023-01-24T10:00:34;6.03;;;5.43;;
2934;SDS011;2462;51.456;7.248;2023-01-24T10:03:01;6.50;;;5.90;;
2934;SDS011;2462;51.456;7.248;2023-01-24T10:05:46;6.37;;;5.77;;
2934;SDS011;2462;51.456;7.248;2023-01-24T10:21:40;6.43;;;5.77;;
2934;SDS011;2462;51.456;7.248;2023-01-24T10:24:11;7.50;;;6.00;;
2934;SDS011;2462;51.456;7.248;2023-01-24T10:26:45;6.23;;;5.70;;
2934;SDS011;2462;51.456;7.248;2023-01-24T10:31:43;5.97;;;5.37;;
2934;SDS011;2462;51.456;7.248;2023-01-24T10:39:08;5.87;;;5.37;;
2934;SDS011;2462;51.456;7.248;2023-01-24T10:41:35;6.60;;;6.00;;
2934;SDS011;2462;51.456;7.248;2023-01-24T10:44:03;6.03;;;5.43;;
2934;SDS011;2462;51.456;7.248;2023-01-24T10:49:31;6.83;;;6.13;;
2934;SDS011;2462;51.456;7.248;2023-01-24T10:52:07;6.77;;;6.17;;
2934;SDS011;2462;51.456;7.248;2023-01-24T10:57:15;6.77;;;6.13;;
2934;SDS011;2462;51.456;7.248;2023-01-24T10:59:42;6.70;;;6.00;;
2934;SDS011;2462;51.456;7.248;2023-01-24T11:02:18;7.57;;;6.87;;
2934;SDS011;2462;51.456;7.248;2023-01-24T11:04:45;6.50;;;5.90;;
2934;SDS011;2462;51.456;7.248;2023-01-24T11:07:23;6.57;;;5.87;;
2934;SDS011;2462;51.456;7.248;2023-01-24T11:09:52;7.07;;;6.37;;
2934;SDS011;2462;51.456;7.248;2023-01-24T11:12:18;7.63;;;6.83;;
2934;SDS011;2462;51.456;7.248;2023-01-24T11:14:46;7.27;;;6.57;;
2934;SDS011;2462;51.456;7.248;2023-01-24T11:17:32;6.20;;;5.60;;
2934;SDS011;2462;51.456;7.248;2023-01-24T11:20:02;6.50;;;5.90;;
2934;SDS011;2462;51.456;7.248;2023-01-24T11:22:28;6.50;;;5.90;;
2934;SDS011;2462;51.456;7.248;2023-01-24T11:25:00;6.80;;;6.20;;
2934;SDS011;2462;51.456;7.248;2023-01-24T11:27:27;7.10;;;6.40;;
2934;SDS011;2462;51.456;7.248;2023-01-24T11:35:23;7.83;;;7.03;;
2934;SDS011;2462;51.456;7.248;2023-01-24T11:40:18;8.10;;;7.30;;
2934;SDS011;2462;51.456;7.248;2023-01-24T11:48:06;6.50;;;5.90;;
2934;SDS011;2462;51.456;7.248;2023-01-24T11:50:35;6.83;;;6.23;;
2934;SDS011;2462;51.456;7.248;2023-01-24T12:08:57;7.50;;;6.80;;
2934;SDS011;2462;51.456;7.248;2023-01-24T12:11:29;7.93;;;7.13;;
2934;SDS011;2462;51.456;7.248;2023-01-24T12:14:21;7.63;;;6.90;;
2934;SDS011;2462;51.456;7.248;2023-01-24T12:22:10;7.53;;;6.57;;
2934;SDS011;2462;51.456;7.248;2023-01-24T12:24:37;7.80;;;7.03;;
2934;SDS011;2462;51.456;7.248;2023-01-24T12:27:08;8.40;;;7.60;;
2934;SDS011;2462;51.456;7.248;2023-01-24T12:29:40;7.67;;;6.93;;
2934;SDS011;2462;51.456;7.248;2023-01-24T12:35:05;7.63;;;6.83;;
2934;SDS011;2462;51.456;7.248;2023-01-24T12:37:42;7.33;;;6.63;;
2934;SDS011;2462;51.456;7.248;2023-01-24T12:42:57;6.90;;;6.30;;
2934;SDS011;2462;51.456;7.248;2023-01-24T12:45:41;7.13;;;6.43;;
2934;SDS011;2462;51.456;7.248;2023-01-24T12:51:03;8.50;;;7.70;;
2934;SDS011;2462;51.456;7.248;2023-01-24T12:53:35;6.67;;;6.07;;
2934;SDS011;2462;51.456;7.248;2023-01-24T12:56:13;7.47;;;6.83;;
2934;SDS011;2462;51.456;7.248;2023-01-24T12:58:41;7.80;;;7.00;;
2934;SDS011;2462;51.456;7.248;2023-01-24T13:03:44;8.43;;;7.70;;
2934;SDS011;2462;51.456;7.248;2023-01-24T13:06:22;7.80;;;7.10;;
2934;SDS011;2462;51.456;7.248;2023-01-24T13:11:26;8.07;;;7.27;;
2934;SDS011;2462;51.456;7.248;2023-01-24T13:19:36;9.07;;;7.50;;
2934;SDS011;2462;51.456;7.248;2023-01-24T13:24:35;7.27;;;6.57;;
2934;SDS011;2462;51.456;7.248;2023-01-24T13:27:08;7.70;;;7.00;;
2934;SDS011;2462;51.456;7.248;2023-01-24T13:29:40;8.40;;;7.60;;
2934;SDS011;2462;51.456;7.248;2023-01-24T13:32:08;7.70;;;6.93;;
2934;SDS011;2462;51.456;7.248;2023-01-24T13:34:37;8.27;;;7.27;;
2934;SDS011;2462;51.456;7.248;2023-01-24T13:37:05;7.60;;;6.90;;
2934;SDS011;2462;51.456;7.248;2023-01-24T13:39:38;8.37;;;7.57;;
2934;SDS011;2462;51.456;7.248;2023-01-24T13:42:18;8.47;;;7.50;;
2934;SDS011;2462;51.456;7.248;2023-01-24T13:44:45;6.97;;;6.37;;
2934;SDS011;2462;51.456;7.248;2023-01-24T13:54:59;8.17;;;7.37;;
2934;SDS011;2462;51.456;7.248;2023-01-24T13:57:26;8.07;;;7.23;;
2934;SDS011;2462;51.456;7.248;2023-01-24T14:02:41;8.73;;;7.47;;
2934;SDS011;2462;51.456;7.248;2023-01-24T14:10:50;8.40;;;7.10;;
2934;SDS011;2462;51.456;7.248;2023-01-24T14:16:03;7.23;;;6.63;;
2934;SDS011;2462;51.456;7.248;2023-01-24T14:19:30;7.10;;;6.40;;
2934;SDS011;2462;51.456;7.248;2023-01-24T14:21:25;8.33;;;7.53;;
2934;SDS011;2462;51.456;7.248;2023-01-24T14:23:57;8.07;;;7.27;;
2934;SDS011;2462;51.456;7.248;2023-01-24T14:26:26;7.73;;;6.97;;
2934;SDS011;2462;51.456;7.248;2023-01-24T14:29:00;7.70;;;6.57;;
2934;SDS011;2462;51.456;7.248;2023-01-24T14:34:07;9.10;;;7.30;;
2934;SDS011;2462;51.456;7.248;2023-01-24T14:36:37;7.93;;;7.23;;
2934;SDS011;2462;51.456;7.248;2023-01-24T14:41:46;7.63;;;6.87;;
2934;SDS011;2462;51.456;7.248;2023-01-24T14:44:16;7.03;;;6.33;;
2934;SDS011;2462;51.456;7.248;2023-01-24T14:46:50;28.60;;;8.30;;
2934;SDS011;2462;51.456;7.248;2023-01-24T14:49:23;29.80;;;14.50;;
2934;SDS011;2462;51.456;7.248;2023-01-24T14:51:49;21.07;;;10.97;;
2934;SDS011;2462;51.456;7.248;2023-01-24T14:54:18;18.90;;;11.30;;
2934;SDS011;2462;51.456;7.248;2023-01-24T14:56:45;21.33;;;11.40;;
2934;SDS011;2462;51.456;7.248;2023-01-24T14:59:11;14.10;;;10.00;;
2934;SDS011;2462;51.456;7.248;2023-01-24T15:01:39;17.70;;;11.57;;
2934;SDS011;2462;51.456;7.248;2023-01-24T15:04:05;21.53;;;10.83;;
2934;SDS011;2462;51.456;7.248;2023-01-24T15:06:31;16.13;;;10.63;;
2934;SDS011;2462;51.456;7.248;2023-01-24T15:08:58;16.70;;;11.50;;
2934;SDS011;2462;51.456;7.248;2023-01-24T15:11:28;17.63;;;9.93;;
2934;SDS011;2462;51.456;7.248;2023-01-24T15:13:57;15.67;;;9.60;;
2934;SDS011;2462;51.456;7.248;2023-01-24T15:16:31;14.93;;;9.80;;
2934;SDS011;2462;51.456;7.248;2023-01-24T15:19:03;13.60;;;10.20;;
2934;SDS011;2462;51.456;7.248;2023-01-24T15:21:34;14.27;;;9.27;;
2934;SDS011;2462;51.456;7.248;2023-01-24T15:24:02;15.80;;;9.73;;
2934;SDS011;2462;51.456;7.248;2023-01-24T15:28:55;14.73;;;8.87;;
2934;SDS011;2462;51.456;7.248;2023-01-24T15:31:23;16.10;;;9.33;;
2934;SDS011;2462;51.456;7.248;2023-01-24T15:33:56;12.43;;;9.17;;
2934;SDS011;2462;51.456;7.248;2023-01-24T15:38:49;14.00;;;9.07;;
2934;SDS011;2462;51.456;7.248;2023-01-24T15:41:25;13.73;;;8.30;;
2934;SDS011;2462;51.456;7.248;2023-01-24T15:44:10;13.37;;;8.90;;
2934;SDS011;2462;51.456;7.248;2023-01-24T15:46:40;11.57;;;8.20;;
2934;SDS011;2462;51.456;7.248;2023-01-24T15:49:26;16.20;;;9.50;;
2934;SDS011;2462;51.456;7.248;2023-01-24T15:54:35;17.67;;;10.80;;
2934;SDS011;2462;51.456;7.248;2023-01-24T15:57:19;30.17;;;14.70;;
2934;SDS011;2462;51.456;7.248;2023-01-24T16:02:29;191.53;;;84.77;;
2934;SDS011;2462;51.456;7.248;2023-01-24T16:04:55;185.47;;;80.87;;
2934;SDS011;2462;51.456;7.248;2023-01-24T16:07:23;180.50;;;79.30;;
2934;SDS011;2462;51.456;7.248;2023-01-24T16:09:49;164.90;;;74.63;;
2934;SDS011;2462;51.456;7.248;2023-01-24T16:12:18;167.57;;;73.27;;
2934;SDS011;2462;51.456;7.248;2023-01-24T16:14:50;169.83;;;70.40;;
2934;SDS011;2462;51.456;7.248;2023-01-24T16:17:17;128.00;;;61.50;;
2934;SDS011;2462;51.456;7.248;2023-01-24T16:19:44;130.50;;;64.17;;
2934;SDS011;2462;51.456;7.248;2023-01-24T16:22:10;148.23;;;62.93;;
2934;SDS011;2462;51.456;7.248;2023-01-24T16:24:36;129.17;;;59.80;;
2934;SDS011;2462;51.456;7.248;2023-01-24T16:27:03;128.97;;;60.20;;
2934;SDS011;2462;51.456;7.248;2023-01-24T16:29:29;119.70;;;57.30;;
2934;SDS011;2462;51.456;7.248;2023-01-24T16:31:56;123.37;;;58.23;;
2934;SDS011;2462;51.456;7.248;2023-01-24T16:34:22;127.33;;;59.10;;
2934;SDS011;2462;51.456;7.248;2023-01-24T16:36:48;123.10;;;54.60;;
2934;SDS011;2462;51.456;7.248;2023-01-24T16:39:15;109.30;;;52.80;;
2934;SDS011;2462;51.456;7.248;2023-01-24T16:41:44;106.00;;;51.50;;
2934;SDS011;2462;51.456;7.248;2023-01-24T16:44:10;108.80;;;52.37;;
2934;SDS011;2462;51.456;7.248;2023-01-24T16:46:37;104.17;;;51.93;;
2934;SDS011;2462;51.456;7.248;2023-01-24T16:49:03;103.63;;;50.33;;
2934;SDS011;2462;51.456;7.248;2023-01-24T16:51:29;104.50;;;52.03;;
2934;SDS011;2462;51.456;7.248;2023-01-24T16:53:56;102.93;;;52.07;;
2934;SDS011;2462;51.456;7.248;2023-01-24T16:56:22;90.73;;;48.57;;
2934;SDS011;2462;51.456;7.248;2023-01-24T16:58:48;94.83;;;49.10;;
2934;SDS011;2462;51.456;7.248;2023-01-24T17:01:19;93.13;;;48.67;;
2934;SDS011;2462;51.456;7.248;2023-01-24T17:03:45;97.87;;;47.27;;
2934;SDS011;2462;51.456;7.248;2023-01-24T17:06:12;81.43;;;46.37;;
2934;SDS011;2462;51.456;7.248;2023-01-24T17:08:39;76.53;;;44.47;;
2934;SDS011;2462;51.456;7.248;2023-01-24T17:11:06;87.57;;;46.80;;
2934;SDS011;2462;51.456;7.248;2023-01-24T17:13:32;69.60;;;42.97;;
2934;SDS011;2462;51.456;7.248;2023-01-24T17:16:07;76.80;;;42.43;;
2934;SDS011;2462;51.456;7.248;2023-01-24T17:18:35;71.93;;;39.97;;
2934;SDS011;2462;51.456;7.248;2023-01-24T17:21:02;79.87;;;40.93;;
2934;SDS011;2462;51.456;7.248;2023-01-24T17:23:29;62.90;;;38.93;;
2934;SDS011;2462;51.456;7.248;2023-01-24T17:26:02;69.60;;;37.03;;
2934;SDS011;2462;51.456;7.248;2023-01-24T17:28:29;70.60;;;37.80;;
2934;SDS011;2462;51.456;7.248;2023-01-24T17:30:55;60.93;;;36.07;;